Terminal Aerodrome Forecast
Issued by NWS Jackson, MS

Home | Current Version | Previous Version | Text Only | Print | Product List | Glossary On
Versions: 1 2 3 4 5 6 7 8 9 10 11 12 13 14 15 16
883
FTUS44 KMEG 211134
TAFTUP
TAF
KTUP 211134Z 2112/2212 17010KT 5SM -SHRA FEW010 OVC025
     FM211300 17009KT 4SM -SHRA BR OVC015
      TEMPO 2113/2117 2SM -RA OVC008
     FM211900 16006KT P6SM VCSH OVC012
     FM220300 00000KT 4SM BR OVC006=

USA.gov is the U.S. government's official web portal to all federal, state and local government web resources and services.